sensor_id;sensor_type;location;lat;lon;timestamp;temperature;humidity
20858;DHT22;10589;53.636;10.012;2023-07-13T03:46:03;13.80;99.90
20858;DHT22;10589;53.636;10.012;2023-07-13T03:48:28;13.80;99.90
20858;DHT22;10589;53.636;10.012;2023-07-13T03:50:54;13.80;99.90
20858;DHT22;10589;53.636;10.012;2023-07-13T03:53:19;13.80;99.90
20858;DHT22;10589;53.636;10.012;2023-07-13T03:55:45;13.80;99.90
20858;DHT22;10589;53.636;10.012;2023-07-13T04:00:51;13.80;99.90
20858;DHT22;10589;53.636;10.012;2023-07-13T04:03:17;13.80;99.90
20858;DHT22;10589;53.636;10.012;2023-07-13T04:05:43;13.80;99.90
20858;DHT22;10589;53.636;10.012;2023-07-13T04:08:08;13.90;99.90
20858;DHT22;10589;53.636;10.012;2023-07-13T04:10:34;13.90;99.90
20858;DHT22;10589;53.636;10.012;2023-07-13T04:13:00;14.00;99.90
20858;DHT22;10589;53.636;10.012;2023-07-13T04:15:28;14.10;99.90
20858;DHT22;10589;53.636;10.012;2023-07-13T04:17:54;14.10;99.90
20858;DHT22;10589;53.636;10.012;2023-07-13T04:20:19;14.20;99.90
20858;DHT22;10589;53.636;10.012;2023-07-13T04:22:46;14.20;99.90
20858;DHT22;10589;53.636;10.012;2023-07-13T04:25:11;14.20;99.90
20858;DHT22;10589;53.636;10.012;2023-07-13T04:27:37;14.20;99.90
20858;DHT22;10589;53.636;10.012;2023-07-13T04:30:05;14.20;99.90
20858;DHT22;10589;53.636;10.012;2023-07-13T04:32:31;14.20;99.90
20858;DHT22;10589;53.636;10.012;2023-07-13T04:34:57;14.10;99.90
20858;DHT22;10589;53.636;10.012;2023-07-13T04:37:25;14.20;99.90
20858;DHT22;10589;53.636;10.012;2023-07-13T04:39:51;14.20;99.90
20858;DHT22;10589;53.636;10.012;2023-07-13T04:42:16;14.20;99.90
20858;DHT22;10589;53.636;10.012;2023-07-13T04:44:46;14.30;99.90
20858;DHT22;10589;53.636;10.012;2023-07-13T04:47:12;14.30;99.90
20858;DHT22;10589;53.636;10.012;2023-07-13T04:49:38;14.40;99.90
20858;DHT22;10589;53.636;10.012;2023-07-13T04:52:04;14.40;99.90
20858;DHT22;10589;53.636;10.012;2023-07-13T04:54:29;14.50;99.90
20858;DHT22;10589;53.636;10.012;2023-07-13T04:56:55;14.60;99.90
20858;DHT22;10589;53.636;10.012;2023-07-13T04:59:20;14.60;99.90
20858;DHT22;10589;53.636;10.012;2023-07-13T05:01:46;14.70;99.90
20858;DHT22;10589;53.636;10.012;2023-07-13T05:04:12;14.70;99.90
20858;DHT22;10589;53.636;10.012;2023-07-13T05:06:37;14.80;99.90
20858;DHT22;10589;53.636;10.012;2023-07-13T05:09:03;14.80;99.90
20858;DHT22;10589;53.636;10.012;2023-07-13T05:11:28;14.90;99.90
20858;DHT22;10589;53.636;10.012;2023-07-13T05:13:54;15.00;99.90
20858;DHT22;10589;53.636;10.012;2023-07-13T05:16:19;15.00;99.90
20858;DHT22;10589;53.636;10.012;2023-07-13T05:18:45;15.20;99.90
20858;DHT22;10589;53.636;10.012;2023-07-13T05:21:11;15.30;99.90
20858;DHT22;10589;53.636;10.012;2023-07-13T05:23:37;15.20;99.90
20858;DHT22;10589;53.636;10.012;2023-07-13T05:26:04;15.40;99.90
20858;DHT22;10589;53.636;10.012;2023-07-13T05:28:31;15.60;99.90
20858;DHT22;10589;53.636;10.012;2023-07-13T05:30:57;15.80;99.90
20858;DHT22;10589;53.636;10.012;2023-07-13T05:33:23;16.00;99.90
20858;DHT22;10589;53.636;10.012;2023-07-13T05:35:49;16.00;99.90
20858;DHT22;10589;53.636;10.012;2023-07-13T05:38:15;16.20;99.90
20858;DHT22;10589;53.636;10.012;2023-07-13T05:40:43;16.20;99.90
20858;DHT22;10589;53.636;10.012;2023-07-13T05:43:09;16.30;99.90
20858;DHT22;10589;53.636;10.012;2023-07-13T05:45:35;16.40;99.90
20858;DHT22;10589;53.636;10.012;2023-07-13T05:48:00;16.40;99.90
20858;DHT22;10589;53.636;10.012;2023-07-13T05:50:26;16.60;99.90
20858;DHT22;10589;53.636;10.012;2023-07-13T05:52:52;16.60;99.90
20858;DHT22;10589;53.636;10.012;2023-07-13T05:55:19;16.70;99.90
20858;DHT22;10589;53.636;10.012;2023-07-13T05:57:44;16.70;99.90
20858;DHT22;10589;53.636;10.012;2023-07-13T06:00:10;16.80;99.90
20858;DHT22;10589;53.636;10.012;2023-07-13T06:02:36;16.90;99.90
20858;DHT22;10589;53.636;10.012;2023-07-13T06:05:02;16.90;99.90
20858;DHT22;10589;53.636;10.012;2023-07-13T06:07:28;17.00;99.90
20858;DHT22;10589;53.636;10.012;2023-07-13T06:09:53;17.00;99.90
20858;DHT22;10589;53.636;10.012;2023-07-13T06:12:19;17.00;99.90
20858;DHT22;10589;53.636;10.012;2023-07-13T06:14:45;17.00;99.90
20858;DHT22;10589;53.636;10.012;2023-07-13T06:17:10;17.00;99.90
20858;DHT22;10589;53.636;10.012;2023-07-13T06:19:36;17.00;99.90
20858;DHT22;10589;53.636;10.012;2023-07-13T06:22:01;17.00;99.90
20858;DHT22;10589;53.636;10.012;2023-07-13T06:24:27;17.10;99.90
20858;DHT22;10589;53.636;10.012;2023-07-13T06:26:53;17.10;99.90
20858;DHT22;10589;53.636;10.012;2023-07-13T06:29:18;17.10;99.90
20858;DHT22;10589;53.636;10.012;2023-07-13T06:31:44;17.30;99.90
20858;DHT22;10589;53.636;10.012;2023-07-13T06:34:09;17.30;99.90
20858;DHT22;10589;53.636;10.012;2023-07-13T06:36:35;17.50;99.90
20858;DHT22;10589;53.636;10.012;2023-07-13T06:39:02;17.60;99.90
20858;DHT22;10589;53.636;10.012;2023-07-13T06:41:28;17.70;99.90
20858;DHT22;10589;53.636;10.012;2023-07-13T06:43:53;17.80;99.90
20858;DHT22;10589;53.636;10.012;2023-07-13T06:46:22;17.80;99.90
20858;DHT22;10589;53.636;10.012;2023-07-13T06:48:48;17.90;99.90
20858;DHT22;10589;53.636;10.012;2023-07-13T06:51:14;18.00;99.90
20858;DHT22;10589;53.636;10.012;2023-07-13T06:53:40;18.00;99.90
20858;DHT22;10589;53.636;10.012;2023-07-13T06:56:05;18.00;99.90
20858;DHT22;10589;53.636;10.012;2023-07-13T06:58:33;18.10;99.90
20858;DHT22;10589;53.636;10.012;2023-07-13T07:00:59;18.20;99.90
20858;DHT22;10589;53.636;10.012;2023-07-13T07:03:24;18.30;99.90
20858;DHT22;10589;53.636;10.012;2023-07-13T07:05:50;18.40;99.90
20858;DHT22;10589;53.636;10.012;2023-07-13T07:08:15;18.50;99.90
20858;DHT22;10589;53.636;10.012;2023-07-13T07:10:42;18.50;99.90
20858;DHT22;10589;53.636;10.012;2023-07-13T07:13:07;18.60;99.90
20858;DHT22;10589;53.636;10.012;2023-07-13T07:15:34;18.60;99.90
20858;DHT22;10589;53.636;10.012;2023-07-13T07:18:00;18.70;99.90
20858;DHT22;10589;53.636;10.012;2023-07-13T07:20:26;18.80;99.90
20858;DHT22;10589;53.636;10.012;2023-07-13T07:22:52;18.90;99.90
20858;DHT22;10589;53.636;10.012;2023-07-13T07:25:18;18.70;99.90
20858;DHT22;10589;53.636;10.012;2023-07-13T07:27:45;18.70;99.90
20858;DHT22;10589;53.636;10.012;2023-07-13T07:30:11;18.70;99.90
20858;DHT22;10589;53.636;10.012;2023-07-13T07:32:38;18.70;99.90
20858;DHT22;10589;53.636;10.012;2023-07-13T07:35:04;18.70;99.90
20858;DHT22;10589;53.636;10.012;2023-07-13T07:37:29;18.80;99.90
20858;DHT22;10589;53.636;10.012;2023-07-13T07:39:58;19.10;99.90
20858;DHT22;10589;53.636;10.012;2023-07-13T07:42:24;19.20;99.90
20858;DHT22;10589;53.636;10.012;2023-07-13T07:44:50;19.40;99.90
20858;DHT22;10589;53.636;10.012;2023-07-13T07:47:16;19.60;99.90
20858;DHT22;10589;53.636;10.012;2023-07-13T07:49:42;19.70;99.90
20858;DHT22;10589;53.636;10.012;2023-07-13T07:52:08;19.50;99.90
20858;DHT22;10589;53.636;10.012;2023-07-13T07:54:33;19.60;99.90
20858;DHT22;10589;53.636;10.012;2023-07-13T07:56:59;19.50;99.90
20858;DHT22;10589;53.636;10.012;2023-07-13T07:59:24;19.50;99.90
20858;DHT22;10589;53.636;10.012;2023-07-13T08:01:50;19.50;99.90
20858;DHT22;10589;53.636;10.012;2023-07-13T08:04:16;19.70;99.90
20858;DHT22;10589;53.636;10.012;2023-07-13T08:06:42;19.60;99.90
20858;DHT22;10589;53.636;10.012;2023-07-13T08:09:07;19.70;99.90
20858;DHT22;10589;53.636;10.012;2023-07-13T08:11:34;19.80;99.90
20858;DHT22;10589;53.636;10.012;2023-07-13T08:13:59;19.90;99.90
20858;DHT22;10589;53.636;10.012;2023-07-13T08:16:26;20.10;99.90
20858;DHT22;10589;53.636;10.012;2023-07-13T08:18:51;20.30;99.90
20858;DHT22;10589;53.636;10.012;2023-07-13T08:21:17;20.60;99.90
20858;DHT22;10589;53.636;10.012;2023-07-13T08:23:45;20.90;99.90
20858;DHT22;10589;53.636;10.012;2023-07-13T08:26:11;21.00;99.90
20858;DHT22;10589;53.636;10.012;2023-07-13T08:28:37;21.00;99.90
20858;DHT22;10589;53.636;10.012;2023-07-13T08:31:07;21.20;99.90
20858;DHT22;10589;53.636;10.012;2023-07-13T08:33:35;21.10;99.90
20858;DHT22;10589;53.636;10.012;2023-07-13T08:36:00;21.30;99.90
20858;DHT22;10589;53.636;10.012;2023-07-13T08:38:26;21.40;99.90
20858;DHT22;10589;53.636;10.012;2023-07-13T08:40:54;21.10;99.90
20858;DHT22;10589;53.636;10.012;2023-07-13T08:43:28;20.90;99.90
20858;DHT22;10589;53.636;10.012;2023-07-13T08:53:51;20.30;99.90
20858;DHT22;10589;53.636;10.012;2023-07-13T08:56:24;20.30;99.90
20858;DHT22;10589;53.636;10.012;2023-07-13T08:58:57;20.30;99.90
20858;DHT22;10589;53.636;10.012;2023-07-13T09:04:17;20.50;99.90
20858;DHT22;10589;53.636;10.012;2023-07-13T09:12:19;21.10;99.90
20858;DHT22;10589;53.636;10.012;2023-07-13T09:14:49;21.40;99.90
20858;DHT22;10589;53.636;10.012;2023-07-13T09:17:22;21.50;99.90
20858;DHT22;10589;53.636;10.012;2023-07-13T09:20:00;21.90;99.90
20858;DHT22;10589;53.636;10.012;2023-07-13T09:22:32;21.90;99.90
20858;DHT22;10589;53.636;10.012;2023-07-13T09:27:53;22.00;99.90
20858;DHT22;10589;53.636;10.012;2023-07-13T09:33:10;21.90;99.90
20858;DHT22;10589;53.636;10.012;2023-07-13T09:35:36;22.10;99.90
20858;DHT22;10589;53.636;10.012;2023-07-13T09:43:34;22.40;99.90
20858;DHT22;10589;53.636;10.012;2023-07-13T09:46:00;22.60;99.90
20858;DHT22;10589;53.636;10.012;2023-07-13T09:48:34;22.80;99.90
20858;DHT22;10589;53.636;10.012;2023-07-13T09:51:09;23.00;99.90
20858;DHT22;10589;53.636;10.012;2023-07-13T09:53:38;23.00;99.90
20858;DHT22;10589;53.636;10.012;2023-07-13T09:56:19;23.00;99.90
20858;DHT22;10589;53.636;10.012;2023-07-13T09:58:45;23.00;99.90
20858;DHT22;10589;53.636;10.012;2023-07-13T10:01:10;23.10;99.90
20858;DHT22;10589;53.636;10.012;2023-07-13T10:03:36;23.10;99.90
20858;DHT22;10589;53.636;10.012;2023-07-13T10:06:16;23.10;99.90
20858;DHT22;10589;53.636;10.012;2023-07-13T10:08:45;23.00;99.90
20858;DHT22;10589;53.636;10.012;2023-07-13T10:11:20;22.90;99.90
20858;DHT22;10589;53.636;10.012;2023-07-13T10:13:54;22.70;99.90
20858;DHT22;10589;53.636;10.012;2023-07-13T10:16:33;22.50;99.90
20858;DHT22;10589;53.636;10.012;2023-07-13T10:19:11;22.20;99.90
20858;DHT22;10589;53.636;10.012;2023-07-13T10:24:51;21.80;99.90
20858;DHT22;10589;53.636;10.012;2023-07-13T10:27:19;21.70;99.90
20858;DHT22;10589;53.636;10.012;2023-07-13T10:29:54;21.80;99.90
20858;DHT22;10589;53.636;10.012;2023-07-13T10:32:24;22.00;99.90
20858;DHT22;10589;53.636;10.012;2023-07-13T10:34:51;22.30;99.90
20858;DHT22;10589;53.636;10.012;2023-07-13T10:37:29;22.50;99.90
20858;DHT22;10589;53.636;10.012;2023-07-13T10:39:57;22.80;99.90
20858;DHT22;10589;53.636;10.012;2023-07-13T10:42:28;22.90;99.90
20858;DHT22;10589;53.636;10.012;2023-07-13T10:44:54;22.90;99.90
20858;DHT22;10589;53.636;10.012;2023-07-13T10:47:20;23.00;99.90
20858;DHT22;10589;53.636;10.012;2023-07-13T10:49:49;23.30;99.90
20858;DHT22;10589;53.636;10.012;2023-07-13T10:52:48;23.60;99.90
20858;DHT22;10589;53.636;10.012;2023-07-13T10:58:15;23.70;99.90
20858;DHT22;10589;53.636;10.012;2023-07-13T11:00:47;23.70;99.90
20858;DHT22;10589;53.636;10.012;2023-07-13T11:03:16;23.90;99.90
20858;DHT22;10589;53.636;10.012;2023-07-13T11:05:43;24.20;99.90
20858;DHT22;10589;53.636;10.012;2023-07-13T11:08:34;24.50;99.90
20858;DHT22;10589;53.636;10.012;2023-07-13T11:11:02;24.50;99.90
20858;DHT22;10589;53.636;10.012;2023-07-13T11:22:09;24.30;99.90
20858;DHT22;10589;53.636;10.012;2023-07-13T11:24:51;24.40;99.90
20858;DHT22;10589;53.636;10.012;2023-07-13T11:27:43;24.60;99.90
20858;DHT22;10589;53.636;10.012;2023-07-13T11:30:31;25.00;99.90
20858;DHT22;10589;53.636;10.012;2023-07-13T11:33:17;25.00;99.90
20858;DHT22;10589;53.636;10.012;2023-07-13T11:36:15;24.80;99.90
20858;DHT22;10589;53.636;10.012;2023-07-13T11:39:09;25.00;99.90
20858;DHT22;10589;53.636;10.012;2023-07-13T11:41:45;25.10;99.90
20858;DHT22;10589;53.636;10.012;2023-07-13T11:49:20;24.50;99.90
20858;DHT22;10589;53.636;10.012;2023-07-13T11:51:46;24.60;99.90
20858;DHT22;10589;53.636;10.012;2023-07-13T11:56:52;24.90;99.90
20858;DHT22;10589;53.636;10.012;2023-07-13T11:59:19;25.00;99.90
20858;DHT22;10589;53.636;10.012;2023-07-13T12:01:52;25.30;99.90
20858;DHT22;10589;53.636;10.012;2023-07-13T12:07:03;25.10;99.90
20858;DHT22;10589;53.636;10.012;2023-07-13T12:09:29;25.20;99.90
20858;DHT22;10589;53.636;10.012;2023-07-13T12:11:57;24.70;99.90
20858;DHT22;10589;53.636;10.012;2023-07-13T12:14:24;24.00;99.90
20858;DHT22;10589;53.636;10.012;2023-07-13T12:16:52;23.10;99.90
20858;DHT22;10589;53.636;10.012;2023-07-13T12:19:26;22.30;99.90
20858;DHT22;10589;53.636;10.012;2023-07-13T12:21:57;21.60;99.90
20858;DHT22;10589;53.636;10.012;2023-07-13T12:24:24;20.50;99.90
20858;DHT22;10589;53.636;10.012;2023-07-13T12:26:58;19.50;99.90
20858;DHT22;10589;53.636;10.012;2023-07-13T12:29:24;18.80;99.90
20858;DHT22;10589;53.636;10.012;2023-07-13T12:31:50;18.20;99.90
20858;DHT22;10589;53.636;10.012;2023-07-13T12:34:20;17.80;99.90
20858;DHT22;10589;53.636;10.012;2023-07-13T12:41:40;17.20;99.90
20858;DHT22;10589;53.636;10.012;2023-07-13T12:44:15;17.40;99.90
20858;DHT22;10589;53.636;10.012;2023-07-13T12:46:53;17.80;99.90
20858;DHT22;10589;53.636;10.012;2023-07-13T12:49:23;18.20;99.90
20858;DHT22;10589;53.636;10.012;2023-07-13T12:51:57;18.50;99.90
20858;DHT22;10589;53.636;10.012;2023-07-13T12:54:24;18.80;99.90
20858;DHT22;10589;53.636;10.012;2023-07-13T12:56:52;19.90;99.90
20858;DHT22;10589;53.636;10.012;2023-07-13T12:59:21;20.60;99.90
20858;DHT22;10589;53.636;10.012;2023-07-13T13:01:48;21.20;99.90
20858;DHT22;10589;53.636;10.012;2023-07-13T13:04:15;22.10;99.90
20858;DHT22;10589;53.636;10.012;2023-07-13T13:06:41;22.40;99.90
20858;DHT22;10589;53.636;10.012;2023-07-13T13:09:13;22.20;99.90
20858;DHT22;10589;53.636;10.012;2023-07-13T13:11:39;21.70;99.90
20858;DHT22;10589;53.636;10.012;2023-07-13T13:14:05;21.40;99.90
20858;DHT22;10589;53.636;10.012;2023-07-13T13:17:07;20.80;99.90
20858;DHT22;10589;53.636;10.012;2023-07-13T13:19:28;20.30;99.90
20858;DHT22;10589;53.636;10.012;2023-07-13T13:21:55;19.90;99.90
20858;DHT22;10589;53.636;10.012;2023-07-13T13:24:24;19.60;99.90
20858;DHT22;10589;53.636;10.012;2023-07-13T13:26:51;19.40;99.90
20858;DHT22;10589;53.636;10.012;2023-07-13T13:29:20;19.40;99.90
20858;DHT22;10589;53.636;10.012;2023-07-13T13:31:47;19.60;99.90
20858;DHT22;10589;53.636;10.012;2023-07-13T13:34:16;19.90;99.90
20858;DHT22;10589;53.636;10.012;2023-07-13T13:36:43;19.80;99.90
20858;DHT22;10589;53.636;10.012;2023-07-13T13:39:21;19.80;99.90
20858;DHT22;10589;53.636;10.012;2023-07-13T13:41:49;19.60;99.90
20858;DHT22;10589;53.636;10.012;2023-07-13T13:44:16;19.60;99.90
20858;DHT22;10589;53.636;10.012;2023-07-13T13:46:43;19.60;99.90
20858;DHT22;10589;53.636;10.012;2023-07-13T13:49:22;19.70;99.90
20858;DHT22;10589;53.636;10.012;2023-07-13T13:51:49;19.90;99.90
20858;DHT22;10589;53.636;10.012;2023-07-13T13:54:16;20.20;99.90
20858;DHT22;10589;53.636;10.012;2023-07-13T13:56:43;20.20;99.90
20858;DHT22;10589;53.636;10.012;2023-07-13T13:59:10;19.90;99.90
20858;DHT22;10589;53.636;10.012;2023-07-13T14:01:36;19.70;99.90
20858;DHT22;10589;53.636;10.012;2023-07-13T14:04:02;19.50;99.90
20858;DHT22;10589;53.636;10.012;2023-07-13T14:06:27;19.50;99.90
20858;DHT22;10589;53.636;10.012;2023-07-13T14:08:54;19.60;99.90
20858;DHT22;10589;53.636;10.012;2023-07-13T14:11:21;20.20;99.90
20858;DHT22;10589;53.636;10.012;2023-07-13T14:13:53;21.70;99.90
20858;DHT22;10589;53.636;10.012;2023-07-13T14:16:22;23.50;99.90
20858;DHT22;10589;53.636;10.012;2023-07-13T14:18:48;25.60;99.90
20858;DHT22;10589;53.636;10.012;2023-07-13T14:21:19;28.00;99.90
20858;DHT22;10589;53.636;10.012;2023-07-13T14:23:46;28.60;99.90
20858;DHT22;10589;53.636;10.012;2023-07-13T14:26:17;27.70;99.90
20858;DHT22;10589;53.636;10.012;2023-07-13T14:28:46;26.40;99.90
20858;DHT22;10589;53.636;10.012;2023-07-13T14:31:14;25.10;99.90
20858;DHT22;10589;53.636;10.012;2023-07-13T14:33:39;24.30;99.90
20858;DHT22;10589;53.636;10.012;2023-07-13T14:38:55;25.00;99.90
20858;DHT22;10589;53.636;10.012;2023-07-13T14:41:21;24.60;99.90
20858;DHT22;10589;53.636;10.012;2023-07-13T14:43:47;24.20;99.90
20858;DHT22;10589;53.636;10.012;2023-07-13T14:46:28;23.50;99.90
20858;DHT22;10589;53.636;10.012;2023-07-13T14:49:04;23.00;99.90
20858;DHT22;10589;53.636;10.012;2023-07-13T14:51:31;22.70;99.90
20858;DHT22;10589;53.636;10.012;2023-07-13T14:54:02;22.90;99.90
20858;DHT22;10589;53.636;10.012;2023-07-13T14:56:27;23.20;99.90
20858;DHT22;10589;53.636;10.012;2023-07-13T14:58:53;23.40;99.90
20858;DHT22;10589;53.636;10.012;2023-07-13T15:01:19;23.40;99.90
20858;DHT22;10589;53.636;10.012;2023-07-13T15:03:47;23.20;99.90
20858;DHT22;10589;53.636;10.012;2023-07-13T15:06:13;23.10;99.90
20858;DHT22;10589;53.636;10.012;2023-07-13T15:08:40;23.00;99.90
20858;DHT22;10589;53.636;10.012;2023-07-13T15:11:10;23.00;99.90
20858;DHT22;10589;53.636;10.012;2023-07-13T15:13:40;23.40;99.90
20858;DHT22;10589;53.636;10.012;2023-07-13T15:16:25;23.30;99.90
20858;DHT22;10589;53.636;10.012;2023-07-13T15:18:51;23.50;99.90
20858;DHT22;10589;53.636;10.012;2023-07-13T15:21:21;23.80;99.90
20858;DHT22;10589;53.636;10.012;2023-07-13T15:23:48;24.80;99.90
20858;DHT22;10589;53.636;10.012;2023-07-13T15:26:15;26.40;99.90
20858;DHT22;10589;53.636;10.012;2023-07-13T15:28:42;26.70;99.90
20858;DHT22;10589;53.636;10.012;2023-07-13T15:31:26;26.20;99.90
20858;DHT22;10589;53.636;10.012;2023-07-13T15:33:55;25.10;99.90
20858;DHT22;10589;53.636;10.012;2023-07-13T15:36:23;24.50;99.90
20858;DHT22;10589;53.636;10.012;2023-07-13T15:38:52;23.80;99.90
20858;DHT22;10589;53.636;10.012;2023-07-13T15:41:23;23.30;99.90
20858;DHT22;10589;53.636;10.012;2023-07-13T15:43:58;23.00;99.90
20858;DHT22;10589;53.636;10.012;2023-07-13T15:46:26;22.90;99.90
20858;DHT22;10589;53.636;10.012;2023-07-13T15:48:53;23.40;99.90
20858;DHT22;10589;53.636;10.012;2023-07-13T15:51:30;24.30;99.90
20858;DHT22;10589;53.636;10.012;2023-07-13T15:53:58;26.10;99.90
20858;DHT22;10589;53.636;10.012;2023-07-13T15:56:27;27.80;99.90
20858;DHT22;10589;53.636;10.012;2023-07-13T15:58:53;28.60;99.90
20858;DHT22;10589;53.636;10.012;2023-07-13T16:01:22;28.30;99.90
20858;DHT22;10589;53.636;10.012;2023-07-13T16:03:49;28.10;99.90
20858;DHT22;10589;53.636;10.012;2023-07-13T16:06:28;27.60;99.90
20858;DHT22;10589;53.636;10.012;2023-07-13T16:08:54;27.50;99.90
20858;DHT22;10589;53.636;10.012;2023-07-13T16:11:23;27.10;99.90
20858;DHT22;10589;53.636;10.012;2023-07-13T16:13:49;27.50;99.90
20858;DHT22;10589;53.636;10.012;2023-07-13T16:16:27;27.60;99.90
20858;DHT22;10589;53.636;10.012;2023-07-13T16:18:55;27.90;99.90
20858;DHT22;10589;53.636;10.012;2023-07-13T16:21:29;29.10;99.90
20858;DHT22;10589;53.636;10.012;2023-07-13T16:23:56;30.40;99.90
20858;DHT22;10589;53.636;10.012;2023-07-13T16:26:30;30.30;99.90
20858;DHT22;10589;53.636;10.012;2023-07-13T16:29:21;29.00;99.90
20858;DHT22;10589;53.636;10.012;2023-07-13T16:31:57;27.60;99.90
20858;DHT22;10589;53.636;10.012;2023-07-13T16:34:23;26.50;99.90
20858;DHT22;10589;53.636;10.012;2023-07-13T16:36:50;25.80;99.90
20858;DHT22;10589;53.636;10.012;2023-07-13T16:39:16;25.20;99.90
20858;DHT22;10589;53.636;10.012;2023-07-13T16:41:42;24.80;99.90
20858;DHT22;10589;53.636;10.012;2023-07-13T16:44:18;24.90;99.90
20858;DHT22;10589;53.636;10.012;2023-07-13T16:46:51;25.80;99.90
20858;DHT22;10589;53.636;10.012;2023-07-13T16:49:29;26.30;99.90
20858;DHT22;10589;53.636;10.012;2023-07-13T16:51:56;26.00;99.90
20858;DHT22;10589;53.636;10.012;2023-07-13T16:54:29;26.30;99.90
20858;DHT22;10589;53.636;10.012;2023-07-13T16:56:57;25.90;99.90
20858;DHT22;10589;53.636;10.012;2023-07-13T16:59:28;26.00;99.90
20858;DHT22;10589;53.636;10.012;2023-07-13T17:01:54;27.10;99.90
20858;DHT22;10589;53.636;10.012;2023-07-13T17:04:20;28.90;99.90
20858;DHT22;10589;53.636;10.012;2023-07-13T17:06:51;29.80;99.90
20858;DHT22;10589;53.636;10.012;2023-07-13T17:09:19;30.70;99.90
20858;DHT22;10589;53.636;10.012;2023-07-13T17:11:44;31.20;99.90
20858;DHT22;10589;53.636;10.012;2023-07-13T17:14:18;31.00;99.90
20858;DHT22;10589;53.636;10.012;2023-07-13T17:16:46;30.30;99.90
20858;DHT22;10589;53.636;10.012;2023-07-13T17:19:13;29.00;99.90
20858;DHT22;10589;53.636;10.012;2023-07-13T17:21:40;27.40;99.90
20858;DHT22;10589;53.636;10.012;2023-07-13T17:24:25;25.90;99.90
20858;DHT22;10589;53.636;10.012;2023-07-13T17:26:51;24.40;99.90
20858;DHT22;10589;53.636;10.012;2023-07-13T17:29:18;23.50;99.90
20858;DHT22;10589;53.636;10.012;2023-07-13T17:31:44;22.80;99.90
20858;DHT22;10589;53.636;10.012;2023-07-13T17:34:15;22.20;99.90
20858;DHT22;10589;53.636;10.012;2023-07-13T17:36:46;21.80;99.90
20858;DHT22;10589;53.636;10.012;2023-07-13T17:39:14;21.40;99.90
20858;DHT22;10589;53.636;10.012;2023-07-13T17:41:39;20.90;99.90
20858;DHT22;10589;53.636;10.012;2023-07-13T17:44:12;20.70;99.90
20858;DHT22;10589;53.636;10.012;2023-07-13T17:46:38;20.60;99.90
20858;DHT22;10589;53.636;10.012;2023-07-13T17:49:04;20.50;99.90
20858;DHT22;10589;53.636;10.012;2023-07-13T17:51:31;20.40;99.90
20858;DHT22;10589;53.636;10.012;2023-07-13T17:53:57;20.30;99.90
20858;DHT22;10589;53.636;10.012;2023-07-13T17:56:23;20.40;99.90
20858;DHT22;10589;53.636;10.012;2023-07-13T17:58:50;20.40;99.90
20858;DHT22;10589;53.636;10.012;2023-07-13T18:01:17;20.30;99.90
20858;DHT22;10589;53.636;10.012;2023-07-13T18:03:46;20.30;99.90
20858;DHT22;10589;53.636;10.012;2023-07-13T18:06:17;20.20;99.90
20858;DHT22;10589;53.636;10.012;2023-07-13T18:08:49;20.00;99.90
20858;DHT22;10589;53.636;10.012;2023-07-13T18:11:15;20.00;99.90
20858;DHT22;10589;53.636;10.012;2023-07-13T18:13:41;20.00;99.90
20858;DHT22;10589;53.636;10.012;2023-07-13T18:16:18;20.00;99.90
20858;DHT22;10589;53.636;10.012;2023-07-13T18:18:44;19.90;99.90
20858;DHT22;10589;53.636;10.012;2023-07-13T18:21:12;19.90;99.90
20858;DHT22;10589;53.636;10.012;2023-07-13T18:23:39;19.80;99.90
20858;DHT22;10589;53.636;10.012;2023-07-13T18:26:09;19.80;99.90
20858;DHT22;10589;53.636;10.012;2023-07-13T18:28:35;19.70;99.90
20858;DHT22;10589;53.636;10.012;2023-07-13T18:31:01;19.70;99.90
20858;DHT22;10589;53.636;10.012;2023-07-13T18:33:29;19.70;99.90
20858;DHT22;10589;53.636;10.012;2023-07-13T18:35:57;19.60;99.90
20858;DHT22;10589;53.636;10.012;2023-07-13T18:38:25;19.50;99.90
20858;DHT22;10589;53.636;10.012;2023-07-13T18:40:53;19.60;99.90
20858;DHT22;10589;53.636;10.012;2023-07-13T18:43:19;19.50;99.90
20858;DHT22;10589;53.636;10.012;2023-07-13T18:45:45;19.40;99.90
20858;DHT22;10589;53.636;10.012;2023-07-13T18:48:23;19.40;99.90
20858;DHT22;10589;53.636;10.012;2023-07-13T18:50:50;19.20;99.90
20858;DHT22;10589;53.636;10.012;2023-07-13T18:53:17;19.20;99.90
20858;DHT22;10589;53.636;10.012;2023-07-13T18:55:44;19.20;99.90
20858;DHT22;10589;53.636;10.012;2023-07-13T18:58:11;19.20;99.90
20858;DHT22;10589;53.636;10.012;2023-07-13T19:00:37;19.20;99.90
20858;DHT22;10589;53.636;10.012;2023-07-13T19:03:04;19.20;99.90
20858;DHT22;10589;53.636;10.012;2023-07-13T19:05:33;19.10;99.90
20858;DHT22;10589;53.636;10.012;2023-07-13T19:08:00;19.00;99.90
20858;DHT22;10589;53.636;10.012;2023-07-13T19:10:27;18.90;99.90
20858;DHT22;10589;53.636;10.012;2023-07-13T19:12:58;18.80;99.90
20858;DHT22;10589;53.636;10.012;2023-07-13T19:15:30;18.70;99.90
20858;DHT22;10589;53.636;10.012;2023-07-13T19:18:04;18.60;99.90
20858;DHT22;10589;53.636;10.012;2023-07-13T19:20:30;18.50;99.90
20858;DHT22;10589;53.636;10.012;2023-07-13T19:23:00;18.30;99.90
20858;DHT22;10589;53.636;10.012;2023-07-13T19:25:27;18.30;99.90
20858;DHT22;10589;53.636;10.012;2023-07-13T19:28:00;18.30;99.90
20858;DHT22;10589;53.636;10.012;2023-07-13T19:30:28;18.20;99.90
20858;DHT22;10589;53.636;10.012;2023-07-13T19:32:56;18.20;99.90
20858;DHT22;10589;53.636;10.012;2023-07-13T19:35:25;18.20;99.90
20858;DHT22;10589;53.636;10.012;2023-07-13T19:37:51;18.20;99.90
20858;DHT22;10589;53.636;10.012;2023-07-13T19:40:23;18.20;99.90
20858;DHT22;10589;53.636;10.012;2023-07-13T19:42:52;18.30;99.90
20858;DHT22;10589;53.636;10.012;2023-07-13T19:45:20;18.30;99.90
20858;DHT22;10589;53.636;10.012;2023-07-13T19:47:47;18.30;99.90
20858;DHT22;10589;53.636;10.012;2023-07-13T19:50:14;18.20;99.90
20858;DHT22;10589;53.636;10.012;2023-07-13T19:52:51;18.10;99.90
20858;DHT22;10589;53.636;10.012;2023-07-13T19:55:21;18.10;99.90
20858;DHT22;10589;53.636;10.012;2023-07-13T19:57:51;18.10;99.90
20858;DHT22;10589;53.636;10.012;2023-07-13T20:00:20;18.00;99.90
20858;DHT22;10589;53.636;10.012;2023-07-13T20:02:47;17.90;99.90
20858;DHT22;10589;53.636;10.012;2023-07-13T20:05:17;17.80;99.90
20858;DHT22;10589;53.636;10.012;2023-07-13T20:07:44;17.60;99.90
20858;DHT22;10589;53.636;10.012;2023-07-13T20:10:21;17.30;99.90
20858;DHT22;10589;53.636;10.012;2023-07-13T20:12:47;17.00;99.90